createdAt,value
2022-07-28T00:00:41.941Z,2.00
2022-07-28T00:03:08.480Z,2.00
2022-07-28T00:05:35.094Z,2.08
2022-07-28T00:08:01.620Z,2.00
2022-07-28T00:10:28.206Z,1.95
2022-07-28T00:12:54.674Z,1.70
2022-07-28T00:15:21.177Z,1.70
2022-07-28T00:17:47.643Z,2.00
2022-07-28T00:20:14.111Z,1.75
2022-07-28T00:22:44.629Z,1.90
2022-07-28T00:25:12.257Z,1.90
2022-07-28T00:27:39.108Z,1.80
2022-07-28T00:30:07.402Z,1.75
2022-07-28T00:32:33.962Z,2.10
2022-07-28T00:35:00.601Z,1.95
2022-07-28T00:37:28.909Z,1.90
2022-07-28T00:39:55.337Z,1.93
2022-07-28T00:42:21.928Z,2.08
2022-07-28T00:44:48.642Z,1.77
2022-07-28T00:47:15.232Z,2.00
2022-07-28T00:49:42.124Z,2.10
2022-07-28T00:52:11.843Z,1.80
2022-07-28T00:54:38.951Z,1.90
2022-07-28T00:57:05.398Z,2.00
2022-07-28T00:59:33.028Z,2.03
2022-07-28T01:02:01.207Z,2.10
2022-07-28T01:04:28.337Z,1.87
2022-07-28T01:06:54.731Z,1.90
2022-07-28T01:09:46.111Z,2.03
2022-07-28T01:12:25.422Z,1.80
2022-07-28T01:15:05.290Z,1.70
2022-07-28T01:17:50.180Z,1.67
2022-07-28T01:20:21.743Z,1.80
2022-07-28T01:23:13.760Z,1.92
2022-07-28T01:25:52.404Z,1.70
2022-07-28T01:28:40.434Z,1.70
2022-07-28T01:31:09.121Z,1.70
2022-07-28T01:33:42.080Z,1.70
2022-07-28T01:36:12.793Z,1.70
2022-07-28T01:38:40.193Z,1.70
2022-07-28T01:41:14.405Z,1.60
2022-07-28T01:43:44.623Z,1.60
2022-07-28T01:46:12.263Z,1.63
2022-07-28T01:48:42.137Z,1.83
2022-07-28T01:51:10.038Z,1.70
2022-07-28T01:53:38.268Z,1.85
2022-07-28T01:56:06.105Z,1.60
2022-07-28T01:58:34.040Z,1.70
2022-07-28T02:01:02.876Z,1.60
2022-07-28T02:03:31.488Z,1.80
2022-07-28T02:06:01.203Z,1.60
2022-07-28T02:08:28.869Z,1.63
2022-07-28T02:10:58.795Z,1.70
2022-07-28T02:13:25.355Z,1.73
2022-07-28T02:15:53.770Z,1.80
2022-07-28T02:18:20.343Z,1.60
2022-07-28T02:20:47.022Z,1.57
2022-07-28T02:23:14.254Z,1.75
2022-07-28T02:25:41.446Z,1.70
2022-07-28T02:28:10.402Z,1.80
2022-07-28T02:30:45.991Z,1.88
2022-07-28T02:33:57.949Z,1.60
2022-07-28T02:36:17.231Z,1.70
2022-07-28T02:38:47.389Z,1.90
2022-07-28T02:41:23.412Z,1.80
2022-07-28T02:43:52.462Z,1.67
2022-07-28T02:46:23.718Z,1.80
2022-07-28T02:48:56.687Z,1.98
2022-07-28T02:51:24.800Z,1.70
2022-07-28T02:53:52.964Z,1.60
2022-07-28T02:56:19.965Z,1.70
2022-07-28T02:58:47.186Z,1.70
2022-07-28T03:01:18.854Z,1.55
2022-07-28T03:03:48.072Z,1.70
2022-07-28T03:06:17.436Z,1.77
2022-07-28T03:08:44.200Z,1.88
2022-07-28T03:11:13.914Z,1.70
2022-07-28T03:13:40.515Z,1.80
2022-07-28T03:16:07.528Z,1.90
2022-07-28T03:18:34.174Z,1.65
2022-07-28T03:21:01.383Z,2.05
2022-07-28T03:23:39.491Z,1.90
2022-07-28T03:26:12.564Z,1.60
2022-07-28T03:28:40.214Z,1.70
2022-07-28T03:31:11.068Z,1.70
2022-07-28T03:33:38.553Z,1.75
2022-07-28T03:36:15.790Z,1.70
2022-07-28T03:39:01.666Z,1.80
2022-07-28T03:41:29.489Z,1.80
2022-07-28T03:43:56.850Z,1.88
2022-07-28T03:46:23.372Z,1.75
2022-07-28T03:48:49.905Z,1.53
2022-07-28T03:51:16.425Z,1.70
2022-07-28T03:53:43.462Z,1.60
2022-07-28T03:56:09.891Z,1.60
2022-07-28T03:58:36.400Z,1.70
2022-07-28T04:01:02.935Z,1.50
2022-07-28T04:03:42.907Z,1.70
2022-07-28T04:06:12.241Z,1.60
2022-07-28T04:08:38.741Z,1.63
2022-07-28T04:11:05.199Z,1.90
2022-07-28T04:13:31.631Z,1.93
2022-07-28T04:15:58.661Z,1.90
2022-07-28T04:18:25.088Z,1.63
2022-07-28T04:20:51.524Z,1.70
2022-07-28T04:23:17.961Z,1.80
2022-07-28T04:25:44.868Z,1.80
2022-07-28T04:28:11.311Z,1.75
2022-07-28T04:30:43.927Z,1.60
2022-07-28T04:33:10.834Z,1.60
2022-07-28T04:35:37.357Z,1.90
2022-07-28T04:38:03.809Z,1.83
2022-07-28T04:40:30.385Z,1.92
2022-07-28T04:42:56.834Z,1.90
2022-07-28T04:45:23.286Z,1.73
2022-07-28T04:47:49.792Z,1.80
2022-07-28T04:50:16.265Z,1.80
2022-07-28T04:52:42.749Z,1.90
2022-07-28T04:55:09.314Z,1.88
2022-07-28T04:57:35.732Z,1.83
2022-07-28T05:00:05.323Z,2.13
2022-07-28T05:02:32.745Z,1.70
2022-07-28T05:04:59.230Z,1.80
2022-07-28T05:07:25.727Z,1.95
2022-07-28T05:09:52.139Z,1.77
2022-07-28T05:12:18.530Z,2.00
2022-07-28T05:14:44.973Z,1.83
2022-07-28T05:17:11.388Z,2.00
2022-07-28T05:19:40.131Z,2.00
2022-07-28T05:22:06.565Z,2.00
2022-07-28T05:24:32.989Z,2.00
2022-07-28T05:26:59.412Z,1.90
2022-07-28T05:29:26.041Z,2.10
2022-07-28T05:32:16.582Z,2.00
2022-07-28T05:34:45.074Z,2.40
2022-07-28T05:37:11.502Z,2.00
2022-07-28T05:39:37.915Z,2.13
2022-07-28T05:42:04.543Z,2.10
2022-07-28T05:44:35.765Z,2.10
2022-07-28T05:47:03.880Z,2.03
2022-07-28T05:49:30.313Z,2.20
2022-07-28T05:51:56.758Z,2.50
2022-07-28T05:54:23.180Z,2.10
2022-07-28T05:56:50.432Z,2.10
2022-07-28T05:59:17.085Z,2.20
2022-07-28T06:01:43.579Z,2.30
2022-07-28T06:04:26.787Z,2.30
2022-07-28T06:06:54.636Z,2.00
2022-07-28T06:09:21.080Z,2.35
2022-07-28T06:11:47.484Z,2.20
2022-07-28T06:14:14.187Z,2.13
2022-07-28T06:16:40.900Z,2.10
2022-07-28T06:19:07.387Z,2.28
2022-07-28T06:21:33.828Z,2.20
2022-07-28T06:24:00.254Z,2.00
2022-07-28T06:26:26.701Z,2.10
2022-07-28T06:28:53.259Z,2.20
2022-07-28T06:31:19.746Z,2.30
2022-07-28T06:33:46.213Z,2.55
2022-07-28T06:36:12.664Z,1.95
2022-07-28T06:38:39.132Z,2.20
2022-07-28T06:41:05.705Z,2.00
2022-07-28T06:43:35.456Z,2.25
2022-07-28T06:46:05.179Z,2.28
2022-07-28T06:48:31.598Z,2.10
2022-07-28T06:50:58.090Z,2.00
2022-07-28T06:53:24.644Z,1.90
2022-07-28T06:55:51.325Z,2.05
2022-07-28T06:58:17.881Z,2.00
2022-07-28T07:00:44.468Z,1.90
2022-07-28T07:03:11.002Z,1.98
2022-07-28T07:05:37.466Z,2.50
2022-07-28T07:08:04.081Z,2.00
2022-07-28T07:10:30.526Z,2.08
2022-07-28T07:12:57.021Z,2.00
2022-07-28T07:15:23.454Z,2.00
2022-07-28T07:17:49.888Z,1.90
2022-07-28T07:20:17.103Z,1.90
2022-07-28T07:22:45.839Z,2.10
2022-07-28T07:25:17.236Z,1.90
2022-07-28T07:27:44.621Z,1.90
2022-07-28T07:30:11.634Z,2.20
2022-07-28T07:32:38.846Z,1.98
2022-07-28T07:35:06.007Z,1.98
2022-07-28T07:37:32.507Z,2.22
2022-07-28T07:39:59.965Z,2.13
2022-07-28T07:42:27.033Z,2.00
2022-07-28T07:44:54.490Z,1.70
2022-07-28T07:47:21.109Z,1.73
2022-07-28T07:49:47.535Z,2.00
2022-07-28T07:52:14.681Z,2.05
2022-07-28T07:54:41.932Z,1.83
2022-07-28T07:57:08.933Z,1.70
2022-07-28T07:59:35.545Z,1.90
2022-07-28T08:02:02.148Z,1.70
2022-07-28T08:04:28.964Z,1.73
2022-07-28T08:06:55.772Z,2.00
2022-07-28T08:09:23.120Z,1.63
2022-07-28T08:11:49.671Z,1.77
2022-07-28T08:14:16.571Z,1.90
2022-07-28T08:16:43.395Z,1.95
2022-07-28T08:19:09.895Z,2.10
2022-07-28T08:21:38.228Z,1.80
2022-07-28T08:24:04.962Z,2.00
2022-07-28T08:26:31.426Z,2.10
2022-07-28T08:28:57.906Z,1.77
2022-07-28T08:31:24.435Z,1.70
2022-07-28T08:33:53.310Z,1.90
2022-07-28T08:36:21.718Z,1.70
2022-07-28T08:38:48.229Z,2.00
2022-07-28T08:41:22.773Z,1.80
2022-07-28T08:43:52.949Z,1.70
2022-07-28T08:46:20.261Z,1.80
2022-07-28T08:48:47.711Z,1.50
2022-07-28T08:51:15.397Z,1.38
2022-07-28T08:53:43.276Z,1.80
2022-07-28T08:56:15.020Z,1.83
2022-07-28T08:58:41.476Z,1.70
2022-07-28T09:01:08.579Z,1.80
2022-07-28T09:03:36.754Z,1.60
2022-07-28T09:06:04.024Z,1.60
2022-07-28T09:08:30.517Z,1.50
2022-07-28T09:10:57.068Z,1.60
2022-07-28T09:13:23.645Z,1.63
2022-07-28T09:15:50.240Z,1.70
2022-07-28T09:18:18.032Z,1.80
2022-07-28T09:20:45.408Z,1.70
2022-07-28T09:23:43.493Z,1.70
2022-07-28T09:26:12.102Z,1.90
2022-07-28T09:28:53.964Z,1.90
2022-07-28T09:31:22.177Z,1.90
2022-07-28T09:34:02.114Z,2.03
2022-07-28T09:36:30.751Z,1.90
2022-07-28T09:38:57.295Z,2.20
2022-07-28T09:41:24.803Z,2.03
2022-07-28T09:43:55.251Z,1.90
2022-07-28T09:46:25.142Z,1.93
2022-07-28T09:48:57.877Z,1.73
2022-07-28T09:51:27.084Z,2.08
2022-07-28T09:54:05.536Z,1.85
2022-07-28T09:56:32.114Z,2.03
2022-07-28T09:58:58.564Z,2.03
2022-07-28T10:01:26.049Z,1.88
2022-07-28T10:03:58.217Z,2.20
2022-07-28T10:06:31.467Z,2.03
2022-07-28T10:09:00.916Z,1.95
2022-07-28T10:11:28.611Z,1.83
2022-07-28T10:13:58.832Z,2.42
2022-07-28T10:16:28.312Z,2.17
2022-07-28T10:18:56.327Z,2.42
2022-07-28T10:21:24.105Z,2.13
2022-07-28T10:23:56.441Z,2.40
2022-07-28T10:26:32.718Z,1.95
2022-07-28T10:29:04.358Z,2.20
2022-07-28T10:31:43.602Z,2.17
2022-07-28T10:34:18.250Z,2.13
2022-07-28T10:36:54.285Z,2.00
2022-07-28T10:39:23.661Z,2.00
2022-07-28T10:41:50.403Z,2.00
2022-07-28T10:44:19.633Z,2.30
2022-07-28T10:46:47.070Z,2.00
2022-07-28T10:49:14.426Z,1.83
2022-07-28T10:52:00.140Z,2.28
2022-07-28T10:54:36.441Z,1.90
2022-07-28T10:57:05.819Z,2.20
2022-07-28T10:59:55.847Z,1.90
2022-07-28T11:02:51.831Z,1.90
2022-07-28T11:05:32.015Z,1.83
2022-07-28T11:08:04.171Z,1.70
2022-07-28T11:10:46.763Z,1.95
2022-07-28T11:13:24.839Z,1.85
2022-07-28T11:16:16.313Z,1.73
2022-07-28T11:19:02.045Z,1.88
2022-07-28T11:21:31.524Z,1.70
2022-07-28T11:24:07.481Z,1.92
2022-07-28T11:26:35.536Z,2.28
2022-07-28T11:29:01.920Z,1.80
2022-07-28T11:31:46.411Z,1.60
2022-07-28T11:34:17.195Z,1.77
2022-07-28T11:37:02.321Z,1.50
2022-07-28T11:39:43.681Z,2.10
2022-07-28T11:42:26.788Z,1.60
2022-07-28T11:44:54.938Z,2.03
2022-07-28T11:47:25.816Z,1.80
2022-07-28T11:50:13.130Z,1.80
2022-07-28T11:52:51.643Z,1.90
2022-07-28T11:55:18.590Z,1.70
2022-07-28T11:57:45.417Z,1.80
2022-07-28T12:00:19.173Z,1.80
2022-07-28T12:02:49.223Z,1.70
2022-07-28T12:05:16.352Z,1.65
2022-07-28T12:08:01.272Z,1.77
2022-07-28T12:10:53.224Z,1.90
2022-07-28T12:13:26.073Z,1.90
2022-07-28T12:15:52.588Z,1.73
2022-07-28T12:18:19.094Z,1.60
2022-07-28T12:20:48.485Z,1.60
2022-07-28T12:23:15.362Z,1.50
2022-07-28T12:25:44.196Z,1.95
2022-07-28T12:28:22.284Z,1.77
2022-07-28T12:30:51.777Z,1.70
2022-07-28T12:33:19.245Z,1.80
2022-07-28T12:35:47.999Z,1.67
2022-07-28T12:38:14.981Z,1.88
2022-07-28T12:40:41.523Z,1.70
2022-07-28T12:43:07.994Z,1.95
2022-07-28T12:45:44.464Z,2.20
2022-07-28T12:48:11.276Z,1.80
2022-07-28T12:50:38.488Z,1.95
2022-07-28T12:53:07.430Z,1.70
2022-07-28T12:55:34.752Z,1.73
2022-07-28T12:58:01.697Z,1.70
2022-07-28T13:00:31.038Z,1.60
2022-07-28T13:02:59.977Z,2.03
2022-07-28T13:05:35.552Z,1.63
2022-07-28T13:08:06.246Z,2.10
2022-07-28T13:10:33.130Z,2.00
2022-07-28T13:13:05.415Z,1.63
2022-07-28T13:15:32.042Z,1.73
2022-07-28T13:17:59.400Z,1.98
2022-07-28T13:20:26.387Z,1.90
2022-07-28T13:22:53.635Z,1.70
2022-07-28T13:25:23.610Z,1.70
2022-07-28T13:27:55.493Z,1.90
2022-07-28T13:30:22.581Z,2.17
2022-07-28T13:32:49.421Z,1.80
2022-07-28T13:35:16.048Z,1.60
2022-07-28T13:37:45.720Z,1.70
2022-07-28T13:40:12.638Z,1.98
2022-07-28T13:42:39.077Z,1.70
2022-07-28T13:45:05.960Z,1.80
2022-07-28T13:47:35.532Z,1.70
2022-07-28T13:50:06.664Z,1.65
2022-07-28T13:52:35.189Z,1.60
2022-07-28T13:55:04.557Z,1.70
2022-07-28T13:57:31.184Z,1.70
2022-07-28T13:59:57.602Z,1.37
2022-07-28T14:02:25.968Z,1.50
2022-07-28T14:04:52.541Z,1.60
2022-07-28T14:07:20.864Z,1.60
2022-07-28T14:09:48.415Z,1.70
2022-07-28T14:12:14.825Z,1.70
2022-07-28T14:14:46.970Z,1.70
2022-07-28T14:17:40.067Z,1.75
2022-07-28T14:20:01.572Z,1.90
2022-07-28T14:22:28.135Z,1.60
2022-07-28T14:24:54.551Z,1.43
2022-07-28T14:27:22.778Z,1.40
2022-07-28T14:29:52.395Z,1.67
2022-07-28T14:32:18.821Z,1.73
2022-07-28T14:34:45.304Z,1.80
2022-07-28T14:37:11.742Z,1.73
2022-07-28T14:39:38.295Z,1.70
2022-07-28T14:42:06.186Z,1.92
2022-07-28T14:44:32.728Z,1.80
2022-07-28T14:46:59.222Z,1.80
2022-07-28T14:49:25.720Z,1.87
2022-07-28T14:51:52.309Z,1.80
2022-07-28T14:54:19.144Z,1.80
2022-07-28T14:56:45.816Z,1.80
2022-07-28T14:59:12.251Z,1.80
2022-07-28T15:01:38.819Z,1.80
2022-07-28T15:04:05.369Z,1.85
2022-07-28T15:06:31.970Z,2.05
2022-07-28T15:08:58.463Z,1.90
2022-07-28T15:11:25.613Z,1.77
2022-07-28T15:13:52.019Z,1.70
2022-07-28T15:16:18.541Z,2.00
2022-07-28T15:18:45.064Z,1.80
2022-07-28T15:21:15.767Z,1.90
2022-07-28T15:23:42.227Z,1.88
2022-07-28T15:26:09.259Z,1.80
2022-07-28T15:28:35.930Z,1.88
2022-07-28T15:31:02.756Z,1.80
2022-07-28T15:33:31.957Z,2.00
2022-07-28T15:36:01.331Z,1.80
2022-07-28T15:38:29.089Z,1.70
2022-07-28T15:40:56.321Z,1.70
2022-07-28T15:43:23.756Z,1.90
2022-07-28T15:45:50.699Z,1.70
2022-07-28T15:48:17.254Z,1.90
2022-07-28T15:50:43.861Z,1.60
2022-07-28T15:53:10.315Z,1.80
2022-07-28T15:55:36.807Z,1.80
2022-07-28T15:58:03.259Z,1.80
2022-07-28T16:00:29.731Z,1.73
2022-07-28T16:02:56.189Z,2.00
2022-07-28T16:05:22.696Z,1.92
2022-07-28T16:07:49.129Z,1.80
2022-07-28T16:10:15.631Z,1.65
2022-07-28T16:12:42.138Z,1.63
2022-07-28T16:15:09.050Z,1.70
2022-07-28T16:17:35.541Z,1.70
2022-07-28T16:20:02.399Z,1.80
2022-07-28T16:22:29.246Z,1.80
2022-07-28T16:24:55.760Z,1.80
2022-07-28T16:27:22.195Z,1.80
2022-07-28T16:29:48.664Z,1.70
2022-07-28T16:32:15.222Z,2.00
2022-07-28T16:34:41.619Z,1.90
2022-07-28T16:37:08.072Z,1.95
2022-07-28T16:39:35.037Z,1.90
2022-07-28T16:42:01.941Z,1.65
2022-07-28T16:44:28.551Z,1.95
2022-07-28T16:46:55.074Z,1.70
2022-07-28T16:49:21.584Z,1.80
2022-07-28T16:51:48.061Z,1.60
2022-07-28T16:54:14.845Z,1.90
2022-07-28T16:56:41.466Z,1.85
2022-07-28T16:59:07.959Z,1.80
2022-07-28T17:01:34.464Z,1.90
2022-07-28T17:04:00.956Z,1.80
2022-07-28T17:06:27.396Z,1.88
2022-07-28T17:08:53.802Z,1.80
2022-07-28T17:11:20.378Z,1.90
2022-07-28T17:13:46.847Z,1.92
2022-07-28T17:16:14.044Z,1.80
2022-07-28T17:18:40.597Z,1.67
2022-07-28T17:21:07.140Z,1.90
2022-07-28T17:23:34.657Z,1.73
2022-07-28T17:26:58.573Z,1.75
2022-07-28T17:28:50.616Z,1.80
2022-07-28T17:31:17.087Z,1.70
2022-07-28T17:33:43.587Z,1.70
2022-07-28T17:36:10.039Z,1.85
2022-07-28T17:38:36.462Z,1.90
2022-07-28T17:41:02.980Z,1.50
2022-07-28T17:43:29.895Z,1.83
2022-07-28T17:45:56.667Z,1.90
2022-07-28T17:48:23.656Z,1.70
2022-07-28T17:50:50.127Z,1.88
2022-07-28T17:53:16.799Z,1.80
2022-07-28T17:56:00.453Z,1.80
2022-07-28T17:58:28.590Z,1.70
2022-07-28T18:01:10.617Z,1.80
2022-07-28T18:03:59.159Z,1.80
2022-07-28T18:06:32.866Z,1.80
2022-07-28T18:09:07.119Z,1.80
2022-07-28T18:11:57.610Z,1.63
2022-07-28T18:14:29.607Z,1.60
2022-07-28T18:16:56.700Z,1.83
2022-07-28T18:19:23.236Z,1.60
2022-07-28T18:21:49.834Z,1.60
2022-07-28T18:24:16.908Z,1.70
2022-07-28T18:26:43.807Z,1.60
2022-07-28T18:29:10.241Z,1.80
2022-07-28T18:31:36.725Z,1.50
2022-07-28T18:34:03.262Z,1.75
2022-07-28T18:36:29.722Z,1.60
2022-07-28T18:38:56.142Z,1.70
2022-07-28T18:41:22.564Z,1.52
2022-07-28T18:43:48.976Z,1.40
2022-07-28T18:46:15.477Z,1.50
2022-07-28T18:48:42.051Z,1.77
2022-07-28T18:51:08.498Z,1.73
2022-07-28T18:53:36.001Z,1.60
2022-07-28T18:56:02.424Z,1.47
2022-07-28T18:58:28.855Z,1.40
2022-07-28T19:00:55.262Z,1.58
2022-07-28T19:03:21.747Z,1.42
2022-07-28T19:05:48.299Z,1.55
2022-07-28T19:08:15.177Z,1.50
2022-07-28T19:10:43.570Z,1.50
2022-07-28T19:13:12.888Z,1.77
2022-07-28T19:15:41.065Z,1.60
2022-07-28T19:18:10.699Z,1.90
2022-07-28T19:20:41.239Z,1.50
2022-07-28T19:23:07.688Z,1.50
2022-07-28T19:25:34.126Z,1.50
2022-07-28T19:28:00.578Z,1.60
2022-07-28T19:30:27.007Z,1.60
2022-07-28T19:32:53.425Z,1.50
2022-07-28T19:35:19.954Z,1.55
2022-07-28T19:37:46.372Z,1.50
2022-07-28T19:40:12.857Z,1.40
2022-07-28T19:42:39.267Z,1.50
2022-07-28T19:45:06.387Z,1.50
2022-07-28T19:47:32.823Z,1.40
2022-07-28T19:50:04.751Z,1.40
2022-07-28T19:52:31.205Z,1.60
2022-07-28T19:54:57.744Z,1.70
2022-07-28T19:57:24.208Z,1.60
2022-07-28T19:59:50.620Z,1.63
2022-07-28T20:02:17.166Z,1.65
2022-07-28T20:04:43.641Z,1.40
2022-07-28T20:07:10.081Z,1.52
2022-07-28T20:09:36.524Z,1.60
2022-07-28T20:12:02.982Z,1.50
2022-07-28T20:14:29.453Z,1.60
2022-07-28T20:16:55.921Z,1.50
2022-07-28T20:19:22.432Z,1.60
2022-07-28T20:21:48.849Z,1.80
2022-07-28T20:24:15.631Z,1.60
2022-07-28T20:26:42.387Z,1.70
2022-07-28T20:29:08.836Z,1.67
2022-07-28T20:31:35.258Z,1.60
2022-07-28T20:34:01.722Z,1.70
2022-07-28T20:36:30.045Z,1.70
2022-07-28T20:38:56.727Z,1.52
2022-07-28T20:41:23.261Z,1.85
2022-07-28T20:44:11.295Z,1.70
2022-07-28T20:46:36.144Z,1.70
2022-07-28T20:49:02.706Z,1.98
2022-07-28T20:51:29.172Z,1.70
2022-07-28T20:53:55.597Z,1.73
2022-07-28T20:56:22.066Z,2.10
2022-07-28T20:58:48.795Z,1.90
2022-07-28T21:01:15.559Z,2.20
2022-07-28T21:03:42.114Z,1.90
2022-07-28T21:06:11.790Z,2.00
2022-07-28T21:08:40.841Z,2.35
2022-07-28T21:11:08.388Z,2.10
2022-07-28T21:13:34.852Z,2.03
2022-07-28T21:16:01.284Z,1.92
2022-07-28T21:18:28.157Z,1.83
2022-07-28T21:20:54.544Z,2.10
2022-07-28T21:23:21.054Z,2.10
2022-07-28T21:25:48.357Z,2.08
2022-07-28T21:28:14.816Z,2.08
2022-07-28T21:30:41.254Z,2.10
2022-07-28T21:33:07.767Z,2.20
2022-07-28T21:35:34.251Z,1.83
2022-07-28T21:38:00.679Z,2.08
2022-07-28T21:40:27.157Z,2.05
2022-07-28T21:42:53.614Z,1.90
2022-07-28T21:45:20.291Z,2.00
2022-07-28T21:47:47.026Z,2.23
2022-07-28T21:50:13.817Z,2.15
2022-07-28T21:52:40.433Z,2.15
2022-07-28T21:55:08.718Z,2.00
2022-07-28T21:57:35.627Z,1.95
2022-07-28T22:00:04.935Z,2.20
2022-07-28T22:02:32.531Z,1.98
2022-07-28T22:04:59.375Z,2.25
2022-07-28T22:07:26.022Z,2.00
2022-07-28T22:09:52.440Z,2.08
2022-07-28T22:12:18.894Z,1.90
2022-07-28T22:14:45.482Z,1.98
2022-07-28T22:17:11.925Z,2.17
2022-07-28T22:19:38.418Z,2.53
2022-07-28T22:22:04.891Z,2.50
2022-07-28T22:24:31.420Z,2.40
2022-07-28T22:26:57.809Z,2.20
2022-07-28T22:29:24.543Z,2.63
2022-07-28T22:31:53.626Z,2.20
2022-07-28T22:34:22.388Z,2.40
2022-07-28T22:36:48.804Z,1.97
2022-07-28T22:39:15.223Z,2.20
2022-07-28T22:41:41.640Z,2.22
2022-07-28T22:44:08.446Z,2.30
2022-07-28T22:46:34.891Z,2.33
2022-07-28T22:49:01.448Z,2.13
2022-07-28T22:51:27.918Z,2.00
2022-07-28T22:53:54.483Z,2.30
2022-07-28T22:59:05.583Z,2.50
2022-07-28T23:01:32.384Z,2.30
2022-07-28T23:04:00.599Z,2.22
2022-07-28T23:06:27.342Z,2.63
2022-07-28T23:08:53.835Z,2.40
2022-07-28T23:11:20.374Z,2.40
2022-07-28T23:13:46.911Z,2.40
2022-07-28T23:16:14.226Z,2.40
2022-07-28T23:18:42.345Z,2.50
2022-07-28T23:21:09.898Z,2.45
2022-07-28T23:23:37.668Z,2.42
2022-07-28T23:26:05.016Z,2.43
2022-07-28T23:28:31.608Z,2.50
2022-07-28T23:30:58.063Z,2.42
2022-07-28T23:33:54.544Z,2.97
2022-07-28T23:36:16.874Z,2.47
2022-07-28T23:38:53.218Z,2.50
2022-07-28T23:41:19.818Z,2.50
2022-07-28T23:43:46.315Z,2.40
2022-07-28T23:46:12.912Z,2.72
2022-07-28T23:48:39.644Z,2.50
2022-07-28T23:51:06.191Z,2.57
2022-07-28T23:53:32.711Z,2.38
2022-07-28T23:55:59.133Z,3.28
2022-07-28T23:58:25.622Z,2.50
